sensor_id;sensor_type;location;lat;lon;timestamp;P1;durP1;ratioP1;P2;durP2;ratioP2
2558;SDS011;1289;53.488;10.006;2023-09-19T00:01:42;4.83;;;4.30;;
2558;SDS011;1289;53.488;10.006;2023-09-19T00:04:11;3.90;;;3.50;;
2558;SDS011;1289;53.488;10.006;2023-09-19T00:06:37;3.87;;;3.57;;
2558;SDS011;1289;53.488;10.006;2023-09-19T00:09:04;3.73;;;3.07;;
2558;SDS011;1289;53.488;10.006;2023-09-19T00:11:35;3.70;;;3.40;;
2558;SDS011;1289;53.488;10.006;2023-09-19T00:14:02;3.60;;;3.40;;
2558;SDS011;1289;53.488;10.006;2023-09-19T00:16:29;3.80;;;3.50;;
2558;SDS011;1289;53.488;10.006;2023-09-19T00:18:58;3.80;;;3.40;;
2558;SDS011;1289;53.488;10.006;2023-09-19T00:21:26;3.40;;;3.00;;
2558;SDS011;1289;53.488;10.006;2023-09-19T00:23:53;4.37;;;3.33;;
2558;SDS011;1289;53.488;10.006;2023-09-19T00:26:20;4.00;;;3.70;;
2558;SDS011;1289;53.488;10.006;2023-09-19T00:28:48;3.50;;;3.20;;
2558;SDS011;1289;53.488;10.006;2023-09-19T00:31:14;5.70;;;3.60;;
2558;SDS011;1289;53.488;10.006;2023-09-19T00:33:41;6.40;;;3.87;;
2558;SDS011;1289;53.488;10.006;2023-09-19T00:36:08;3.90;;;3.40;;
2558;SDS011;1289;53.488;10.006;2023-09-19T00:38:36;4.43;;;3.63;;
2558;SDS011;1289;53.488;10.006;2023-09-19T00:41:02;4.20;;;3.80;;
2558;SDS011;1289;53.488;10.006;2023-09-19T00:43:29;3.60;;;3.30;;
2558;SDS011;1289;53.488;10.006;2023-09-19T00:45:59;4.27;;;3.53;;
2558;SDS011;1289;53.488;10.006;2023-09-19T00:48:28;4.30;;;3.90;;
2558;SDS011;1289;53.488;10.006;2023-09-19T00:50:55;8.53;;;4.17;;
2558;SDS011;1289;53.488;10.006;2023-09-19T00:53:24;5.10;;;4.40;;
2558;SDS011;1289;53.488;10.006;2023-09-19T00:55:54;4.17;;;3.77;;
2558;SDS011;1289;53.488;10.006;2023-09-19T00:58:22;5.80;;;4.13;;
2558;SDS011;1289;53.488;10.006;2023-09-19T01:00:48;5.37;;;4.40;;
2558;SDS011;1289;53.488;10.006;2023-09-19T01:03:15;3.70;;;3.40;;
2558;SDS011;1289;53.488;10.006;2023-09-19T01:05:43;6.77;;;4.50;;
2558;SDS011;1289;53.488;10.006;2023-09-19T01:08:10;4.53;;;4.10;;
2558;SDS011;1289;53.488;10.006;2023-09-19T01:10:37;8.70;;;4.70;;
2558;SDS011;1289;53.488;10.006;2023-09-19T01:13:12;5.00;;;4.50;;
2558;SDS011;1289;53.488;10.006;2023-09-19T01:15:44;6.57;;;4.90;;
2558;SDS011;1289;53.488;10.006;2023-09-19T01:18:21;5.13;;;4.70;;
2558;SDS011;1289;53.488;10.006;2023-09-19T01:20:56;5.00;;;4.10;;
2558;SDS011;1289;53.488;10.006;2023-09-19T01:23:30;5.03;;;4.60;;
2558;SDS011;1289;53.488;10.006;2023-09-19T01:26:07;5.27;;;4.33;;
2558;SDS011;1289;53.488;10.006;2023-09-19T01:28:51;5.87;;;5.27;;
2558;SDS011;1289;53.488;10.006;2023-09-19T01:31:22;6.30;;;5.20;;
2558;SDS011;1289;53.488;10.006;2023-09-19T01:33:53;5.63;;;4.70;;
2558;SDS011;1289;53.488;10.006;2023-09-19T01:36:23;5.50;;;5.10;;
2558;SDS011;1289;53.488;10.006;2023-09-19T01:38:50;6.00;;;5.30;;
2558;SDS011;1289;53.488;10.006;2023-09-19T01:41:20;5.43;;;4.90;;
2558;SDS011;1289;53.488;10.006;2023-09-19T01:43:52;6.03;;;5.40;;
2558;SDS011;1289;53.488;10.006;2023-09-19T01:46:21;5.57;;;4.90;;
2558;SDS011;1289;53.488;10.006;2023-09-19T01:48:54;4.87;;;4.30;;
2558;SDS011;1289;53.488;10.006;2023-09-19T01:51:26;6.40;;;4.80;;
2558;SDS011;1289;53.488;10.006;2023-09-19T01:54:00;7.60;;;4.60;;
2558;SDS011;1289;53.488;10.006;2023-09-19T01:56:30;5.37;;;4.67;;
2558;SDS011;1289;53.488;10.006;2023-09-19T01:59:01;5.47;;;5.07;;
2558;SDS011;1289;53.488;10.006;2023-09-19T02:01:32;5.17;;;4.70;;
2558;SDS011;1289;53.488;10.006;2023-09-19T02:04:00;5.60;;;5.10;;
2558;SDS011;1289;53.488;10.006;2023-09-19T02:06:26;6.83;;;4.70;;
2558;SDS011;1289;53.488;10.006;2023-09-19T02:08:53;5.43;;;4.90;;
2558;SDS011;1289;53.488;10.006;2023-09-19T02:11:20;5.00;;;4.60;;
2558;SDS011;1289;53.488;10.006;2023-09-19T02:13:47;5.20;;;4.70;;
2558;SDS011;1289;53.488;10.006;2023-09-19T02:16:18;5.43;;;4.73;;
2558;SDS011;1289;53.488;10.006;2023-09-19T02:18:47;8.17;;;4.97;;
2558;SDS011;1289;53.488;10.006;2023-09-19T02:21:14;5.03;;;4.63;;
2558;SDS011;1289;53.488;10.006;2023-09-19T02:23:40;5.73;;;5.07;;
2558;SDS011;1289;53.488;10.006;2023-09-19T02:26:07;7.70;;;5.20;;
2558;SDS011;1289;53.488;10.006;2023-09-19T02:28:33;6.80;;;5.40;;
2558;SDS011;1289;53.488;10.006;2023-09-19T02:31:01;7.23;;;4.90;;
2558;SDS011;1289;53.488;10.006;2023-09-19T02:33:30;8.23;;;5.10;;
2558;SDS011;1289;53.488;10.006;2023-09-19T02:35:59;7.20;;;4.97;;
2558;SDS011;1289;53.488;10.006;2023-09-19T02:38:26;5.43;;;4.83;;
2558;SDS011;1289;53.488;10.006;2023-09-19T02:40:54;6.13;;;5.30;;
2558;SDS011;1289;53.488;10.006;2023-09-19T02:43:21;5.93;;;5.43;;
2558;SDS011;1289;53.488;10.006;2023-09-19T02:45:48;5.40;;;4.97;;
2558;SDS011;1289;53.488;10.006;2023-09-19T02:48:15;4.37;;;3.97;;
2558;SDS011;1289;53.488;10.006;2023-09-19T02:50:43;4.67;;;4.20;;
2558;SDS011;1289;53.488;10.006;2023-09-19T02:53:11;6.90;;;4.63;;
2558;SDS011;1289;53.488;10.006;2023-09-19T02:55:39;6.47;;;5.17;;
2558;SDS011;1289;53.488;10.006;2023-09-19T02:58:06;4.77;;;4.27;;
2558;SDS011;1289;53.488;10.006;2023-09-19T03:00:36;7.53;;;4.00;;
2558;SDS011;1289;53.488;10.006;2023-09-19T03:03:03;4.50;;;4.10;;
2558;SDS011;1289;53.488;10.006;2023-09-19T03:05:32;6.67;;;4.23;;
2558;SDS011;1289;53.488;10.006;2023-09-19T03:07:59;9.63;;;3.87;;
2558;SDS011;1289;53.488;10.006;2023-09-19T03:10:28;6.00;;;4.30;;
2558;SDS011;1289;53.488;10.006;2023-09-19T03:12:57;5.20;;;4.13;;
2558;SDS011;1289;53.488;10.006;2023-09-19T03:15:25;4.97;;;4.50;;
2558;SDS011;1289;53.488;10.006;2023-09-19T03:17:52;4.50;;;4.10;;
2558;SDS011;1289;53.488;10.006;2023-09-19T03:20:21;7.70;;;4.60;;
2558;SDS011;1289;53.488;10.006;2023-09-19T03:22:48;4.63;;;4.23;;
2558;SDS011;1289;53.488;10.006;2023-09-19T03:25:16;6.30;;;4.17;;
2558;SDS011;1289;53.488;10.006;2023-09-19T03:27:47;4.70;;;4.30;;
2558;SDS011;1289;53.488;10.006;2023-09-19T03:30:14;5.80;;;4.13;;
2558;SDS011;1289;53.488;10.006;2023-09-19T03:32:45;4.60;;;4.30;;
2558;SDS011;1289;53.488;10.006;2023-09-19T03:35:15;6.47;;;4.03;;
2558;SDS011;1289;53.488;10.006;2023-09-19T03:37:42;7.50;;;4.60;;
2558;SDS011;1289;53.488;10.006;2023-09-19T03:40:10;6.73;;;4.80;;
2558;SDS011;1289;53.488;10.006;2023-09-19T03:42:37;4.70;;;3.60;;
2558;SDS011;1289;53.488;10.006;2023-09-19T03:45:07;6.00;;;4.20;;
2558;SDS011;1289;53.488;10.006;2023-09-19T03:47:37;5.63;;;3.63;;
2558;SDS011;1289;53.488;10.006;2023-09-19T03:50:05;5.73;;;4.00;;
2558;SDS011;1289;53.488;10.006;2023-09-19T03:52:34;3.73;;;3.40;;
2558;SDS011;1289;53.488;10.006;2023-09-19T03:55:00;4.80;;;3.70;;
2558;SDS011;1289;53.488;10.006;2023-09-19T03:57:30;4.07;;;3.40;;
2558;SDS011;1289;53.488;10.006;2023-09-19T03:59:56;6.33;;;4.40;;
2558;SDS011;1289;53.488;10.006;2023-09-19T04:02:24;4.80;;;2.77;;
2558;SDS011;1289;53.488;10.006;2023-09-19T04:04:51;5.43;;;3.30;;
2558;SDS011;1289;53.488;10.006;2023-09-19T04:07:18;4.60;;;3.40;;
2558;SDS011;1289;53.488;10.006;2023-09-19T04:09:47;6.90;;;2.80;;
2558;SDS011;1289;53.488;10.006;2023-09-19T04:12:14;4.43;;;3.10;;
2558;SDS011;1289;53.488;10.006;2023-09-19T04:14:42;5.03;;;3.60;;
2558;SDS011;1289;53.488;10.006;2023-09-19T04:17:09;6.00;;;3.33;;
2558;SDS011;1289;53.488;10.006;2023-09-19T04:19:37;4.70;;;2.80;;
2558;SDS011;1289;53.488;10.006;2023-09-19T04:22:04;3.30;;;3.00;;
2558;SDS011;1289;53.488;10.006;2023-09-19T04:24:31;4.90;;;3.27;;
2558;SDS011;1289;53.488;10.006;2023-09-19T04:26:59;5.40;;;3.00;;
2558;SDS011;1289;53.488;10.006;2023-09-19T04:29:25;4.60;;;3.33;;
2558;SDS011;1289;53.488;10.006;2023-09-19T04:31:55;4.00;;;2.97;;
2558;SDS011;1289;53.488;10.006;2023-09-19T04:34:21;5.10;;;3.37;;
2558;SDS011;1289;53.488;10.006;2023-09-19T04:36:50;5.53;;;3.97;;
2558;SDS011;1289;53.488;10.006;2023-09-19T04:39:17;8.43;;;3.87;;
2558;SDS011;1289;53.488;10.006;2023-09-19T04:41:44;4.20;;;3.30;;
2558;SDS011;1289;53.488;10.006;2023-09-19T04:44:13;3.90;;;3.30;;
2558;SDS011;1289;53.488;10.006;2023-09-19T04:46:39;6.03;;;3.23;;
2558;SDS011;1289;53.488;10.006;2023-09-19T04:49:06;7.77;;;3.80;;
2558;SDS011;1289;53.488;10.006;2023-09-19T04:51:32;4.90;;;3.70;;
2558;SDS011;1289;53.488;10.006;2023-09-19T04:54:02;5.90;;;3.30;;
2558;SDS011;1289;53.488;10.006;2023-09-19T04:56:29;6.43;;;3.47;;
2558;SDS011;1289;53.488;10.006;2023-09-19T04:58:57;4.77;;;3.50;;
2558;SDS011;1289;53.488;10.006;2023-09-19T05:01:23;5.10;;;3.00;;
2558;SDS011;1289;53.488;10.006;2023-09-19T05:03:50;7.83;;;3.33;;
2558;SDS011;1289;53.488;10.006;2023-09-19T05:06:17;4.63;;;3.77;;
2558;SDS011;1289;53.488;10.006;2023-09-19T05:08:45;5.20;;;3.20;;
2558;SDS011;1289;53.488;10.006;2023-09-19T05:11:14;7.57;;;3.90;;
2558;SDS011;1289;53.488;10.006;2023-09-19T05:13:40;6.00;;;3.30;;
2558;SDS011;1289;53.488;10.006;2023-09-19T05:16:08;4.70;;;3.30;;
2558;SDS011;1289;53.488;10.006;2023-09-19T05:18:35;4.10;;;3.10;;
2558;SDS011;1289;53.488;10.006;2023-09-19T05:21:02;8.87;;;3.80;;
2558;SDS011;1289;53.488;10.006;2023-09-19T05:23:28;6.03;;;3.70;;
2558;SDS011;1289;53.488;10.006;2023-09-19T05:25:56;7.00;;;3.40;;
2558;SDS011;1289;53.488;10.006;2023-09-19T05:28:26;8.93;;;3.67;;
2558;SDS011;1289;53.488;10.006;2023-09-19T05:30:52;4.80;;;3.50;;
2558;SDS011;1289;53.488;10.006;2023-09-19T05:33:19;4.83;;;3.37;;
2558;SDS011;1289;53.488;10.006;2023-09-19T05:35:47;5.03;;;3.70;;
2558;SDS011;1289;53.488;10.006;2023-09-19T05:38:14;6.80;;;4.10;;
2558;SDS011;1289;53.488;10.006;2023-09-19T05:40:44;8.93;;;3.67;;
2558;SDS011;1289;53.488;10.006;2023-09-19T05:43:11;5.50;;;3.60;;
2558;SDS011;1289;53.488;10.006;2023-09-19T05:45:40;9.27;;;3.33;;
2558;SDS011;1289;53.488;10.006;2023-09-19T05:48:08;6.50;;;3.47;;
2558;SDS011;1289;53.488;10.006;2023-09-19T05:50:36;6.40;;;4.27;;
2558;SDS011;1289;53.488;10.006;2023-09-19T05:53:03;4.13;;;3.10;;
2558;SDS011;1289;53.488;10.006;2023-09-19T05:55:30;4.90;;;3.63;;
2558;SDS011;1289;53.488;10.006;2023-09-19T05:57:56;6.03;;;3.40;;
2558;SDS011;1289;53.488;10.006;2023-09-19T06:00:23;6.67;;;3.50;;
2558;SDS011;1289;53.488;10.006;2023-09-19T06:02:54;3.77;;;3.43;;
2558;SDS011;1289;53.488;10.006;2023-09-19T06:05:22;6.83;;;3.57;;
2558;SDS011;1289;53.488;10.006;2023-09-19T06:07:49;3.63;;;3.10;;
2558;SDS011;1289;53.488;10.006;2023-09-19T06:10:16;5.20;;;3.17;;
2558;SDS011;1289;53.488;10.006;2023-09-19T06:12:42;6.20;;;3.67;;
2558;SDS011;1289;53.488;10.006;2023-09-19T06:15:09;5.10;;;3.30;;
2558;SDS011;1289;53.488;10.006;2023-09-19T06:17:40;4.80;;;3.70;;
2558;SDS011;1289;53.488;10.006;2023-09-19T06:20:09;8.73;;;3.60;;
2558;SDS011;1289;53.488;10.006;2023-09-19T06:22:40;7.73;;;3.57;;
2558;SDS011;1289;53.488;10.006;2023-09-19T06:25:07;4.27;;;3.10;;
2558;SDS011;1289;53.488;10.006;2023-09-19T06:27:36;9.53;;;4.17;;
2558;SDS011;1289;53.488;10.006;2023-09-19T06:30:03;4.53;;;3.53;;
2558;SDS011;1289;53.488;10.006;2023-09-19T06:32:32;6.33;;;3.47;;
2558;SDS011;1289;53.488;10.006;2023-09-19T06:34:58;4.40;;;3.67;;
2558;SDS011;1289;53.488;10.006;2023-09-19T06:37:28;4.63;;;2.97;;
2558;SDS011;1289;53.488;10.006;2023-09-19T06:39:54;5.50;;;4.83;;
2558;SDS011;1289;53.488;10.006;2023-09-19T06:42:22;8.00;;;4.50;;
2558;SDS011;1289;53.488;10.006;2023-09-19T06:44:49;5.73;;;4.10;;
2558;SDS011;1289;53.488;10.006;2023-09-19T06:47:15;5.07;;;3.40;;
2558;SDS011;1289;53.488;10.006;2023-09-19T06:49:42;4.40;;;3.40;;
2558;SDS011;1289;53.488;10.006;2023-09-19T06:52:10;6.60;;;3.57;;
2558;SDS011;1289;53.488;10.006;2023-09-19T06:54:38;5.23;;;3.80;;
2558;SDS011;1289;53.488;10.006;2023-09-19T06:57:05;7.80;;;3.67;;
2558;SDS011;1289;53.488;10.006;2023-09-19T06:59:34;6.80;;;3.60;;
2558;SDS011;1289;53.488;10.006;2023-09-19T07:02:02;4.47;;;3.80;;
2558;SDS011;1289;53.488;10.006;2023-09-19T07:04:31;4.90;;;3.43;;
2558;SDS011;1289;53.488;10.006;2023-09-19T07:06:57;7.00;;;3.23;;
2558;SDS011;1289;53.488;10.006;2023-09-19T07:09:24;8.00;;;3.57;;
2558;SDS011;1289;53.488;10.006;2023-09-19T07:11:53;6.93;;;4.17;;
2558;SDS011;1289;53.488;10.006;2023-09-19T07:14:20;6.57;;;4.13;;
2558;SDS011;1289;53.488;10.006;2023-09-19T07:16:47;6.03;;;3.70;;
2558;SDS011;1289;53.488;10.006;2023-09-19T07:19:14;8.03;;;3.80;;
2558;SDS011;1289;53.488;10.006;2023-09-19T07:21:41;7.10;;;3.87;;
2558;SDS011;1289;53.488;10.006;2023-09-19T07:24:08;6.10;;;4.10;;
2558;SDS011;1289;53.488;10.006;2023-09-19T07:26:34;5.77;;;4.20;;
2558;SDS011;1289;53.488;10.006;2023-09-19T07:29:02;7.47;;;3.90;;
2558;SDS011;1289;53.488;10.006;2023-09-19T07:31:29;6.23;;;3.97;;
2558;SDS011;1289;53.488;10.006;2023-09-19T07:33:56;8.00;;;3.87;;
2558;SDS011;1289;53.488;10.006;2023-09-19T07:36:23;7.10;;;4.20;;
2558;SDS011;1289;53.488;10.006;2023-09-19T07:38:50;7.40;;;4.00;;
2558;SDS011;1289;53.488;10.006;2023-09-19T07:41:16;10.80;;;4.70;;
2558;SDS011;1289;53.488;10.006;2023-09-19T07:43:43;5.97;;;4.00;;
2558;SDS011;1289;53.488;10.006;2023-09-19T07:46:11;6.37;;;4.43;;
2558;SDS011;1289;53.488;10.006;2023-09-19T07:48:38;4.83;;;3.70;;
2558;SDS011;1289;53.488;10.006;2023-09-19T07:51:06;6.77;;;4.17;;
2558;SDS011;1289;53.488;10.006;2023-09-19T07:53:33;7.30;;;3.80;;
2558;SDS011;1289;53.488;10.006;2023-09-19T07:56:04;8.20;;;3.80;;
2558;SDS011;1289;53.488;10.006;2023-09-19T07:58:31;6.57;;;4.33;;
2558;SDS011;1289;53.488;10.006;2023-09-19T08:01:02;6.73;;;4.87;;
2558;SDS011;1289;53.488;10.006;2023-09-19T08:03:31;10.23;;;4.00;;
2558;SDS011;1289;53.488;10.006;2023-09-19T08:06:00;7.10;;;4.33;;
2558;SDS011;1289;53.488;10.006;2023-09-19T08:08:30;9.50;;;4.57;;
2558;SDS011;1289;53.488;10.006;2023-09-19T08:10:57;5.03;;;3.80;;
2558;SDS011;1289;53.488;10.006;2023-09-19T08:13:25;7.10;;;5.03;;
2558;SDS011;1289;53.488;10.006;2023-09-19T08:15:53;7.37;;;3.80;;
2558;SDS011;1289;53.488;10.006;2023-09-19T08:18:21;9.37;;;4.00;;
2558;SDS011;1289;53.488;10.006;2023-09-19T08:20:52;6.70;;;3.70;;
2558;SDS011;1289;53.488;10.006;2023-09-19T08:23:24;5.93;;;4.00;;
2558;SDS011;1289;53.488;10.006;2023-09-19T08:25:50;10.57;;;5.07;;
2558;SDS011;1289;53.488;10.006;2023-09-19T08:28:17;5.00;;;3.70;;
2558;SDS011;1289;53.488;10.006;2023-09-19T08:30:49;9.23;;;4.50;;
2558;SDS011;1289;53.488;10.006;2023-09-19T08:33:16;6.50;;;3.80;;
2558;SDS011;1289;53.488;10.006;2023-09-19T08:35:43;6.40;;;4.20;;
2558;SDS011;1289;53.488;10.006;2023-09-19T08:38:12;10.20;;;5.17;;
2558;SDS011;1289;53.488;10.006;2023-09-19T08:40:39;5.13;;;3.60;;
2558;SDS011;1289;53.488;10.006;2023-09-19T08:43:07;5.10;;;3.80;;
2558;SDS011;1289;53.488;10.006;2023-09-19T08:45:38;8.60;;;4.90;;
2558;SDS011;1289;53.488;10.006;2023-09-19T08:50:51;12.10;;;4.40;;
2558;SDS011;1289;53.488;10.006;2023-09-19T08:53:28;7.30;;;4.30;;
2558;SDS011;1289;53.488;10.006;2023-09-19T08:55:59;8.10;;;4.17;;
2558;SDS011;1289;53.488;10.006;2023-09-19T08:58:29;7.03;;;4.70;;
2558;SDS011;1289;53.488;10.006;2023-09-19T09:01:02;4.40;;;4.00;;
2558;SDS011;1289;53.488;10.006;2023-09-19T09:03:32;5.40;;;4.50;;
2558;SDS011;1289;53.488;10.006;2023-09-19T09:06:00;6.97;;;4.00;;
2558;SDS011;1289;53.488;10.006;2023-09-19T09:08:30;8.30;;;4.67;;
2558;SDS011;1289;53.488;10.006;2023-09-19T09:10:58;10.90;;;4.23;;
2558;SDS011;1289;53.488;10.006;2023-09-19T09:13:25;10.63;;;4.33;;
2558;SDS011;1289;53.488;10.006;2023-09-19T09:15:53;8.13;;;4.23;;
2558;SDS011;1289;53.488;10.006;2023-09-19T09:18:20;10.67;;;4.50;;
2558;SDS011;1289;53.488;10.006;2023-09-19T09:20:47;8.70;;;3.70;;
2558;SDS011;1289;53.488;10.006;2023-09-19T09:23:14;7.10;;;3.70;;
2558;SDS011;1289;53.488;10.006;2023-09-19T09:25:48;8.63;;;4.20;;
2558;SDS011;1289;53.488;10.006;2023-09-19T09:28:20;5.20;;;3.27;;
2558;SDS011;1289;53.488;10.006;2023-09-19T09:30:48;6.30;;;3.67;;
2558;SDS011;1289;53.488;10.006;2023-09-19T09:33:16;9.03;;;4.00;;
2558;SDS011;1289;53.488;10.006;2023-09-19T09:35:47;4.60;;;3.57;;
2558;SDS011;1289;53.488;10.006;2023-09-19T09:38:18;5.63;;;3.43;;
2558;SDS011;1289;53.488;10.006;2023-09-19T09:40:45;5.90;;;3.30;;
2558;SDS011;1289;53.488;10.006;2023-09-19T09:43:26;7.20;;;3.70;;
2558;SDS011;1289;53.488;10.006;2023-09-19T09:46:08;10.03;;;3.97;;
2558;SDS011;1289;53.488;10.006;2023-09-19T09:49:03;6.50;;;3.27;;
2558;SDS011;1289;53.488;10.006;2023-09-19T09:51:49;7.27;;;3.57;;
2558;SDS011;1289;53.488;10.006;2023-09-19T09:54:34;5.70;;;3.40;;
2558;SDS011;1289;53.488;10.006;2023-09-19T09:57:03;7.33;;;3.50;;
2558;SDS011;1289;53.488;10.006;2023-09-19T09:59:50;8.07;;;2.80;;
2558;SDS011;1289;53.488;10.006;2023-09-19T10:02:21;6.43;;;3.20;;
2558;SDS011;1289;53.488;10.006;2023-09-19T10:04:54;6.87;;;3.50;;
2558;SDS011;1289;53.488;10.006;2023-09-19T10:07:36;3.80;;;3.40;;
2558;SDS011;1289;53.488;10.006;2023-09-19T10:10:07;4.87;;;3.43;;
2558;SDS011;1289;53.488;10.006;2023-09-19T10:12:45;6.07;;;3.73;;
2558;SDS011;1289;53.488;10.006;2023-09-19T10:15:16;5.13;;;3.47;;
2558;SDS011;1289;53.488;10.006;2023-09-19T10:17:46;3.63;;;3.13;;
2558;SDS011;1289;53.488;10.006;2023-09-19T10:20:14;10.10;;;3.50;;
2558;SDS011;1289;53.488;10.006;2023-09-19T10:23:03;4.20;;;3.37;;
2558;SDS011;1289;53.488;10.006;2023-09-19T10:25:36;7.73;;;4.47;;
2558;SDS011;1289;53.488;10.006;2023-09-19T10:28:05;4.50;;;3.13;;
2558;SDS011;1289;53.488;10.006;2023-09-19T10:30:42;5.40;;;3.50;;
2558;SDS011;1289;53.488;10.006;2023-09-19T10:33:10;7.17;;;3.87;;
2558;SDS011;1289;53.488;10.006;2023-09-19T10:35:39;5.10;;;2.90;;
2558;SDS011;1289;53.488;10.006;2023-09-19T10:38:10;3.80;;;3.03;;
2558;SDS011;1289;53.488;10.006;2023-09-19T10:40:38;6.00;;;3.20;;
2558;SDS011;1289;53.488;10.006;2023-09-19T10:43:11;8.10;;;3.67;;
2558;SDS011;1289;53.488;10.006;2023-09-19T10:45:41;3.73;;;3.23;;
2558;SDS011;1289;53.488;10.006;2023-09-19T10:48:12;4.33;;;3.53;;
2558;SDS011;1289;53.488;10.006;2023-09-19T10:50:43;5.00;;;3.20;;
2558;SDS011;1289;53.488;10.006;2023-09-19T10:53:12;4.80;;;3.13;;
2558;SDS011;1289;53.488;10.006;2023-09-19T10:55:41;5.33;;;3.70;;
2558;SDS011;1289;53.488;10.006;2023-09-19T10:58:24;6.17;;;3.70;;
2558;SDS011;1289;53.488;10.006;2023-09-19T11:00:55;5.20;;;3.40;;
2558;SDS011;1289;53.488;10.006;2023-09-19T11:03:28;8.57;;;3.20;;
2558;SDS011;1289;53.488;10.006;2023-09-19T11:08:52;7.27;;;4.00;;
2558;SDS011;1289;53.488;10.006;2023-09-19T11:11:41;7.80;;;3.40;;
2558;SDS011;1289;53.488;10.006;2023-09-19T11:20:20;6.70;;;3.40;;
2558;SDS011;1289;53.488;10.006;2023-09-19T11:23:22;5.00;;;3.30;;
2558;SDS011;1289;53.488;10.006;2023-09-19T11:25:50;7.03;;;3.37;;
2558;SDS011;1289;53.488;10.006;2023-09-19T11:28:32;4.27;;;2.90;;
2558;SDS011;1289;53.488;10.006;2023-09-19T11:31:00;7.87;;;3.60;;
2558;SDS011;1289;53.488;10.006;2023-09-19T11:40:27;8.63;;;3.33;;
2558;SDS011;1289;53.488;10.006;2023-09-19T11:42:55;4.90;;;2.90;;
2558;SDS011;1289;53.488;10.006;2023-09-19T11:48:27;5.73;;;3.67;;
2558;SDS011;1289;53.488;10.006;2023-09-19T11:50:56;3.87;;;3.10;;
2558;SDS011;1289;53.488;10.006;2023-09-19T11:53:24;5.70;;;3.00;;
2558;SDS011;1289;53.488;10.006;2023-09-19T11:55:58;4.17;;;3.53;;
2558;SDS011;1289;53.488;10.006;2023-09-19T11:58:25;5.10;;;3.43;;
2558;SDS011;1289;53.488;10.006;2023-09-19T12:00:54;5.30;;;3.00;;
2558;SDS011;1289;53.488;10.006;2023-09-19T12:03:23;8.30;;;3.60;;
2558;SDS011;1289;53.488;10.006;2023-09-19T12:05:50;5.30;;;3.50;;
2558;SDS011;1289;53.488;10.006;2023-09-19T12:08:18;9.00;;;4.07;;
2558;SDS011;1289;53.488;10.006;2023-09-19T12:10:47;4.83;;;3.10;;
2558;SDS011;1289;53.488;10.006;2023-09-19T12:13:17;4.23;;;3.43;;
2558;SDS011;1289;53.488;10.006;2023-09-19T12:15:44;12.60;;;3.40;;
2558;SDS011;1289;53.488;10.006;2023-09-19T12:18:25;12.00;;;3.83;;
2558;SDS011;1289;53.488;10.006;2023-09-19T12:20:52;7.77;;;4.10;;
2558;SDS011;1289;53.488;10.006;2023-09-19T12:23:21;4.40;;;3.17;;
2558;SDS011;1289;53.488;10.006;2023-09-19T12:25:48;5.93;;;3.23;;
2558;SDS011;1289;53.488;10.006;2023-09-19T12:28:18;6.67;;;3.60;;
2558;SDS011;1289;53.488;10.006;2023-09-19T12:30:47;9.10;;;3.67;;
2558;SDS011;1289;53.488;10.006;2023-09-19T12:33:17;6.13;;;3.43;;
2558;SDS011;1289;53.488;10.006;2023-09-19T12:35:46;6.70;;;3.90;;
2558;SDS011;1289;53.488;10.006;2023-09-19T12:38:23;6.70;;;3.57;;
2558;SDS011;1289;53.488;10.006;2023-09-19T12:40:50;6.43;;;3.20;;
2558;SDS011;1289;53.488;10.006;2023-09-19T12:43:17;5.07;;;3.70;;
2558;SDS011;1289;53.488;10.006;2023-09-19T12:45:44;8.97;;;3.87;;
2558;SDS011;1289;53.488;10.006;2023-09-19T12:48:19;9.67;;;3.70;;
2558;SDS011;1289;53.488;10.006;2023-09-19T12:50:59;10.73;;;3.70;;
2558;SDS011;1289;53.488;10.006;2023-09-19T12:53:32;4.57;;;3.47;;
2558;SDS011;1289;53.488;10.006;2023-09-19T12:56:01;5.20;;;3.43;;
2558;SDS011;1289;53.488;10.006;2023-09-19T12:58:31;10.43;;;4.17;;
2558;SDS011;1289;53.488;10.006;2023-09-19T13:01:00;4.03;;;3.50;;
2558;SDS011;1289;53.488;10.006;2023-09-19T13:03:28;10.37;;;3.57;;
2558;SDS011;1289;53.488;10.006;2023-09-19T13:05:57;12.03;;;4.50;;
2558;SDS011;1289;53.488;10.006;2023-09-19T13:08:27;6.33;;;3.80;;
2558;SDS011;1289;53.488;10.006;2023-09-19T13:11:06;4.90;;;3.60;;
2558;SDS011;1289;53.488;10.006;2023-09-19T13:13:36;6.60;;;3.93;;
2558;SDS011;1289;53.488;10.006;2023-09-19T13:16:03;4.93;;;3.70;;
2558;SDS011;1289;53.488;10.006;2023-09-19T13:18:41;5.80;;;3.70;;
2558;SDS011;1289;53.488;10.006;2023-09-19T13:21:10;6.03;;;3.50;;
2558;SDS011;1289;53.488;10.006;2023-09-19T13:23:40;9.20;;;3.90;;
2558;SDS011;1289;53.488;10.006;2023-09-19T13:26:10;6.47;;;3.87;;
2558;SDS011;1289;53.488;10.006;2023-09-19T13:28:37;8.37;;;3.60;;
2558;SDS011;1289;53.488;10.006;2023-09-19T13:31:04;8.60;;;3.70;;
2558;SDS011;1289;53.488;10.006;2023-09-19T13:33:30;4.47;;;3.47;;
2558;SDS011;1289;53.488;10.006;2023-09-19T13:35:57;5.77;;;3.90;;
2558;SDS011;1289;53.488;10.006;2023-09-19T13:38:24;5.70;;;3.70;;
2558;SDS011;1289;53.488;10.006;2023-09-19T13:40:50;7.47;;;3.80;;
2558;SDS011;1289;53.488;10.006;2023-09-19T13:43:19;8.30;;;3.73;;
2558;SDS011;1289;53.488;10.006;2023-09-19T13:45:47;4.17;;;3.30;;
2558;SDS011;1289;53.488;10.006;2023-09-19T13:48:14;5.60;;;3.93;;
2558;SDS011;1289;53.488;10.006;2023-09-19T13:50:41;8.10;;;3.77;;
2558;SDS011;1289;53.488;10.006;2023-09-19T13:53:08;5.17;;;3.57;;
2558;SDS011;1289;53.488;10.006;2023-09-19T13:55:35;6.83;;;3.70;;
2558;SDS011;1289;53.488;10.006;2023-09-19T13:58:03;7.43;;;4.47;;
2558;SDS011;1289;53.488;10.006;2023-09-19T14:00:33;6.67;;;3.43;;
2558;SDS011;1289;53.488;10.006;2023-09-19T14:03:00;4.80;;;3.20;;
2558;SDS011;1289;53.488;10.006;2023-09-19T14:05:27;7.20;;;3.80;;
2558;SDS011;1289;53.488;10.006;2023-09-19T14:07:54;8.47;;;3.67;;
2558;SDS011;1289;53.488;10.006;2023-09-19T14:10:22;6.17;;;3.70;;
2558;SDS011;1289;53.488;10.006;2023-09-19T14:12:49;5.57;;;3.80;;
2558;SDS011;1289;53.488;10.006;2023-09-19T14:15:16;7.30;;;3.53;;
2558;SDS011;1289;53.488;10.006;2023-09-19T14:17:44;4.73;;;4.03;;
2558;SDS011;1289;53.488;10.006;2023-09-19T14:20:11;7.30;;;3.80;;
2558;SDS011;1289;53.488;10.006;2023-09-19T14:22:37;5.33;;;3.40;;
2558;SDS011;1289;53.488;10.006;2023-09-19T14:25:04;4.40;;;3.47;;
2558;SDS011;1289;53.488;10.006;2023-09-19T14:27:31;5.00;;;3.30;;
2558;SDS011;1289;53.488;10.006;2023-09-19T14:29:57;6.97;;;3.87;;
2558;SDS011;1289;53.488;10.006;2023-09-19T14:32:24;6.63;;;4.07;;
2558;SDS011;1289;53.488;10.006;2023-09-19T14:34:52;8.40;;;4.33;;
2558;SDS011;1289;53.488;10.006;2023-09-19T14:37:19;4.80;;;3.33;;
2558;SDS011;1289;53.488;10.006;2023-09-19T14:39:46;7.87;;;4.60;;
2558;SDS011;1289;53.488;10.006;2023-09-19T14:42:13;9.53;;;3.77;;
2558;SDS011;1289;53.488;10.006;2023-09-19T14:44:43;10.77;;;3.83;;
2558;SDS011;1289;53.488;10.006;2023-09-19T14:47:10;6.57;;;3.47;;
2558;SDS011;1289;53.488;10.006;2023-09-19T14:49:38;6.57;;;3.70;;
2558;SDS011;1289;53.488;10.006;2023-09-19T14:52:07;6.00;;;3.60;;
2558;SDS011;1289;53.488;10.006;2023-09-19T14:54:35;6.93;;;3.57;;
2558;SDS011;1289;53.488;10.006;2023-09-19T14:57:03;6.67;;;3.30;;
2558;SDS011;1289;53.488;10.006;2023-09-19T14:59:30;7.30;;;4.00;;
2558;SDS011;1289;53.488;10.006;2023-09-19T15:01:56;21.33;;;4.10;;
2558;SDS011;1289;53.488;10.006;2023-09-19T15:04:23;6.83;;;4.20;;
2558;SDS011;1289;53.488;10.006;2023-09-19T15:06:50;7.70;;;3.67;;
2558;SDS011;1289;53.488;10.006;2023-09-19T15:09:21;11.90;;;3.67;;
2558;SDS011;1289;53.488;10.006;2023-09-19T15:11:51;7.33;;;4.10;;
2558;SDS011;1289;53.488;10.006;2023-09-19T15:14:18;5.30;;;3.70;;
2558;SDS011;1289;53.488;10.006;2023-09-19T15:16:45;9.50;;;3.80;;
2558;SDS011;1289;53.488;10.006;2023-09-19T15:19:12;6.43;;;3.80;;
2558;SDS011;1289;53.488;10.006;2023-09-19T15:21:38;9.57;;;4.13;;
2558;SDS011;1289;53.488;10.006;2023-09-19T15:24:05;8.67;;;4.20;;
2558;SDS011;1289;53.488;10.006;2023-09-19T15:26:36;7.17;;;4.00;;
2558;SDS011;1289;53.488;10.006;2023-09-19T15:29:05;4.10;;;3.70;;
2558;SDS011;1289;53.488;10.006;2023-09-19T15:31:32;11.67;;;4.67;;
2558;SDS011;1289;53.488;10.006;2023-09-19T15:33:58;5.37;;;4.10;;